createdAt,value
2023-02-23T00:00:51.896Z,97465.22
2023-02-23T00:02:53.299Z,97459.16
2023-02-23T00:04:54.661Z,97471.78
2023-02-23T00:06:55.980Z,97461.47
2023-02-23T00:08:58.185Z,97464.78
2023-02-23T00:11:00.367Z,97465.81
2023-02-23T00:13:01.708Z,97467.41
2023-02-23T00:15:03.069Z,97464.84
2023-02-23T00:17:04.464Z,97458.94
2023-02-23T00:19:08.199Z,97461.63
2023-02-23T00:21:09.651Z,97455.69
2023-02-23T00:23:10.989Z,97460.91
2023-02-23T00:25:12.279Z,97455.03
2023-02-23T00:27:18.251Z,97462.78
2023-02-23T00:29:20.726Z,97456.03
2023-02-23T00:31:25.547Z,97457.59
2023-02-23T00:33:26.859Z,97466.88
2023-02-23T00:35:28.191Z,97460.13
2023-02-23T00:37:29.491Z,97451.59
2023-02-23T00:39:30.789Z,97461.84
2023-02-23T00:41:32.086Z,97451.69
2023-02-23T00:43:33.382Z,97467.09
2023-02-23T00:45:36.129Z,97456.88
2023-02-23T00:47:37.540Z,97466.16
2023-02-23T00:49:38.836Z,97467.88
2023-02-23T00:51:40.126Z,97467.91
2023-02-23T00:53:41.434Z,97467.91
2023-02-23T00:55:42.779Z,97467.03
2023-02-23T00:57:44.066Z,97471.38
2023-02-23T00:59:45.372Z,97467.97
2023-02-23T01:01:46.737Z,97473.00
2023-02-23T01:03:48.120Z,97470.47
2023-02-23T01:05:52.304Z,97468.84
2023-02-23T01:07:53.605Z,97468.00
2023-02-23T01:09:54.935Z,97471.47
2023-02-23T01:11:56.636Z,97474.81
2023-02-23T01:13:58.083Z,97474.81
2023-02-23T01:15:59.434Z,97468.75
2023-02-23T01:18:00.815Z,97470.34
2023-02-23T01:20:02.103Z,97470.28
2023-02-23T01:22:03.435Z,97477.06
2023-02-23T01:24:04.747Z,97471.94
2023-02-23T01:26:06.233Z,97472.78
2023-02-23T01:28:09.016Z,97468.47
2023-02-23T01:30:10.359Z,97464.19
2023-02-23T01:32:11.796Z,97466.59
2023-02-23T01:34:13.226Z,97468.34
2023-02-23T01:36:14.597Z,97467.50
2023-02-23T01:38:15.892Z,97464.13
2023-02-23T01:40:26.620Z,97319.66
2023-02-23T01:42:27.960Z,97458.13
2023-02-23T01:44:29.334Z,97458.13
2023-02-23T01:46:30.669Z,97458.16
2023-02-23T01:48:34.233Z,97457.31
2023-02-23T01:50:36.086Z,97452.09
2023-02-23T01:52:37.684Z,97459.78
2023-02-23T01:54:39.036Z,97455.56
2023-02-23T01:56:43.409Z,97459.06
2023-02-23T01:58:44.762Z,97461.66
2023-02-23T02:00:47.558Z,97445.56
2023-02-23T02:02:49.022Z,97454.06
2023-02-23T02:04:52.378Z,97314.75
2023-02-23T02:06:55.397Z,97445.44
2023-02-23T02:08:56.851Z,97444.59
2023-02-23T02:10:58.140Z,97446.28
2023-02-23T02:12:59.471Z,97442.94
2023-02-23T02:15:00.786Z,97439.56
2023-02-23T02:17:04.880Z,97440.47
2023-02-23T02:19:06.173Z,97435.34
2023-02-23T02:21:07.504Z,97437.91
2023-02-23T02:23:09.746Z,97435.50
2023-02-23T02:25:12.586Z,97427.91
2023-02-23T02:27:13.910Z,97432.22
2023-02-23T02:29:15.207Z,97427.25
2023-02-23T02:31:16.749Z,97424.72
2023-02-23T02:33:19.189Z,97426.31
2023-02-23T02:35:20.550Z,97422.81
2023-02-23T02:37:21.895Z,97419.34
2023-02-23T02:39:24.017Z,97420.25
2023-02-23T02:41:25.365Z,97419.44
2023-02-23T02:43:26.675Z,97410.03
2023-02-23T02:45:28.015Z,97409.09
2023-02-23T02:47:29.358Z,97412.47
2023-02-23T02:49:30.714Z,97411.69
2023-02-23T02:51:32.073Z,97409.00
2023-02-23T02:53:33.913Z,97410.59
2023-02-23T02:55:37.466Z,97409.56
2023-02-23T02:57:38.760Z,97407.66
2023-02-23T02:59:58.707Z,97415.25
2023-02-23T03:02:18.590Z,97401.66
2023-02-23T03:04:38.551Z,97408.38
2023-02-23T03:06:58.484Z,97404.28
2023-02-23T03:09:18.411Z,97403.44
2023-02-23T03:11:38.248Z,97395.72
2023-02-23T03:13:58.143Z,97399.06
2023-02-23T03:16:18.180Z,97398.28
2023-02-23T03:18:38.388Z,97395.72
2023-02-23T03:20:58.301Z,97393.09
2023-02-23T03:23:18.335Z,97398.16
2023-02-23T03:25:38.249Z,97397.47
2023-02-23T03:27:58.055Z,97392.59
2023-02-23T03:30:18.038Z,97396.91
2023-02-23T03:32:37.939Z,97390.16
2023-02-23T03:34:58.073Z,97400.41
2023-02-23T03:37:17.805Z,97392.06
2023-02-23T03:39:37.664Z,97392.16
2023-02-23T03:41:57.464Z,97396.97
2023-02-23T03:44:17.341Z,97395.47
2023-02-23T03:46:37.131Z,97400.69
2023-02-23T03:48:56.943Z,97394.53
2023-02-23T03:51:17.195Z,97398.34
2023-02-23T03:53:37.238Z,97392.81
2023-02-23T03:55:57.528Z,97393.44
2023-02-23T03:58:17.929Z,97398.06
2023-02-23T04:00:38.765Z,97387.00
2023-02-23T04:02:58.814Z,97383.22
2023-02-23T04:05:18.694Z,97388.06
2023-02-23T04:07:38.668Z,97389.75
2023-02-23T04:09:58.492Z,97388.63
2023-02-23T04:12:18.447Z,97382.38
2023-02-23T04:14:19.693Z,97385.50
2023-02-23T04:16:20.988Z,97391.22
2023-02-23T04:18:22.366Z,97390.19
2023-02-23T04:20:24.390Z,97389.25
2023-02-23T04:22:25.725Z,97388.25
2023-02-23T04:24:27.031Z,97386.56
2023-02-23T04:26:28.365Z,97387.34
2023-02-23T04:28:29.712Z,97389.91
2023-02-23T04:30:31.087Z,97391.75
2023-02-23T04:32:32.504Z,97391.81
2023-02-23T04:34:33.892Z,97391.03
2023-02-23T04:36:35.223Z,97387.81
2023-02-23T04:38:36.551Z,97393.09
2023-02-23T04:40:37.959Z,97391.50
2023-02-23T04:42:39.291Z,97393.31
2023-02-23T04:44:40.637Z,97395.94
2023-02-23T04:46:41.936Z,97390.94
2023-02-23T04:48:43.233Z,97387.59
2023-02-23T04:50:44.531Z,97392.03
2023-02-23T04:52:45.871Z,97384.47
2023-02-23T04:54:47.168Z,97387.91
2023-02-23T04:56:48.503Z,97393.06
2023-02-23T04:58:50.213Z,97383.78
2023-02-23T05:00:51.544Z,97385.50
2023-02-23T05:02:52.893Z,97382.19
2023-02-23T05:04:54.250Z,97387.41
2023-02-23T05:06:55.586Z,97385.91
2023-02-23T05:08:56.882Z,97392.88
2023-02-23T05:10:58.204Z,97388.81
2023-02-23T05:13:02.275Z,97389.78
2023-02-23T05:15:03.592Z,97389.13
2023-02-23T05:17:05.643Z,97386.66
2023-02-23T05:19:08.066Z,97384.22
2023-02-23T05:21:09.496Z,97387.66
2023-02-23T05:23:10.789Z,97386.81
2023-02-23T05:25:12.118Z,97387.59
2023-02-23T05:27:14.083Z,97379.06
2023-02-23T05:29:15.380Z,97380.75
2023-02-23T05:31:17.499Z,97388.25
2023-02-23T05:33:19.912Z,97384.75
2023-02-23T05:35:21.209Z,97373.59
2023-02-23T05:37:22.588Z,97382.75
2023-02-23T05:39:23.955Z,97386.03
2023-02-23T05:41:25.391Z,97385.81
2023-02-23T05:43:26.883Z,97382.09
2023-02-23T05:45:28.243Z,97380.19
2023-02-23T05:47:29.555Z,97385.97
2023-02-23T05:49:30.889Z,97384.97
2023-02-23T05:51:34.968Z,97379.72
2023-02-23T05:53:36.273Z,97385.56
2023-02-23T05:55:37.758Z,97387.31
2023-02-23T05:57:39.055Z,97388.00
2023-02-23T05:59:40.342Z,97383.81
2023-02-23T06:01:41.751Z,97384.69
2023-02-23T06:03:43.079Z,97388.16
2023-02-23T06:05:44.383Z,97393.31
2023-02-23T06:07:45.722Z,97384.94
2023-02-23T06:09:47.038Z,97392.75
2023-02-23T06:11:48.387Z,97391.97
2023-02-23T06:13:49.906Z,97394.59
2023-02-23T06:15:51.289Z,97399.78
2023-02-23T06:17:53.623Z,97399.06
2023-02-23T06:19:55.189Z,97395.72
2023-02-23T06:21:56.484Z,97402.59
2023-02-23T06:24:00.639Z,97396.69
2023-02-23T06:26:02.214Z,97405.28
2023-02-23T06:28:03.523Z,97404.53
2023-02-23T06:30:04.815Z,97413.13
2023-02-23T06:32:06.210Z,97412.25
2023-02-23T06:34:07.586Z,97415.66
2023-02-23T06:36:10.327Z,97418.22
2023-02-23T06:38:11.652Z,97414.06
2023-02-23T06:40:12.943Z,97412.38
2023-02-23T06:42:15.400Z,97422.59
2023-02-23T06:44:16.739Z,97423.50
2023-02-23T06:46:18.099Z,97425.22
2023-02-23T06:48:19.439Z,97426.06
2023-02-23T06:50:21.377Z,97423.53
2023-02-23T06:52:25.014Z,97420.19
2023-02-23T06:54:26.520Z,97423.63
2023-02-23T06:56:27.882Z,97425.38
2023-02-23T06:58:29.208Z,97424.44
2023-02-23T07:00:30.659Z,97421.88
2023-02-23T07:02:32.001Z,97417.59
2023-02-23T07:04:33.322Z,97417.47
2023-02-23T07:06:34.645Z,97419.16
2023-02-23T07:08:35.976Z,97413.97
2023-02-23T07:10:37.322Z,97406.13
2023-02-23T07:12:38.627Z,97404.25
2023-02-23T07:14:39.992Z,97402.38
2023-02-23T07:16:41.574Z,97409.84
2023-02-23T07:18:42.882Z,97418.19
2023-02-23T07:20:44.881Z,97408.72
2023-02-23T07:22:46.178Z,97422.34
2023-02-23T07:24:48.369Z,97421.41
2023-02-23T07:26:49.911Z,97417.13
2023-02-23T07:28:53.356Z,97417.97
2023-02-23T07:30:55.505Z,97418.84
2023-02-23T07:32:56.816Z,97414.69
2023-02-23T07:34:58.211Z,97415.63
2023-02-23T07:36:59.513Z,97421.69
2023-02-23T07:39:00.803Z,97420.13
2023-02-23T07:41:02.168Z,97415.91
2023-02-23T07:43:03.464Z,97420.28
2023-02-23T07:45:04.775Z,97422.03
2023-02-23T07:47:06.303Z,97425.59
2023-02-23T07:49:07.590Z,97425.69
2023-02-23T07:51:10.070Z,97421.47
2023-02-23T07:53:11.483Z,97424.91
2023-02-23T07:55:13.025Z,97416.50
2023-02-23T07:57:14.323Z,97420.78
2023-02-23T07:59:16.014Z,97421.66
2023-02-23T08:01:17.816Z,97418.31
2023-02-23T08:03:19.512Z,97423.44
2023-02-23T08:05:20.834Z,97420.09
2023-02-23T08:07:22.126Z,97425.22
2023-02-23T08:09:23.424Z,97416.78
2023-02-23T08:11:24.813Z,97419.34
2023-02-23T08:13:26.107Z,97423.63
2023-02-23T08:15:27.660Z,97419.41
2023-02-23T08:17:30.372Z,97415.16
2023-02-23T08:19:31.726Z,97415.97
2023-02-23T08:21:33.030Z,97421.91
2023-02-23T08:23:34.322Z,97423.63
2023-02-23T08:25:35.660Z,97427.81
2023-02-23T08:27:37.036Z,97422.59
2023-02-23T08:29:38.878Z,97424.22
2023-02-23T08:31:40.409Z,97418.88
2023-02-23T08:33:41.809Z,97428.06
2023-02-23T08:35:43.205Z,97422.72
2023-02-23T08:37:45.461Z,97420.75
2023-02-23T08:39:46.767Z,97430.84
2023-02-23T08:41:48.110Z,97423.78
2023-02-23T08:43:49.420Z,97426.25
2023-02-23T08:45:50.779Z,97422.75
2023-02-23T08:47:52.095Z,97430.25
2023-02-23T08:49:56.092Z,97421.69
2023-02-23T08:51:57.432Z,97426.81
2023-02-23T08:53:58.775Z,97423.41
2023-02-23T08:56:00.681Z,97427.69
2023-02-23T08:58:01.984Z,97421.81
2023-02-23T09:00:03.371Z,97432.94
2023-02-23T09:02:04.878Z,97426.31
2023-02-23T09:04:12.451Z,97429.81
2023-02-23T09:06:13.812Z,97425.66
2023-02-23T09:08:15.112Z,97419.81
2023-02-23T09:10:16.439Z,97425.81
2023-02-23T09:12:17.752Z,97419.19
2023-02-23T09:14:19.123Z,97417.53
2023-02-23T09:16:20.473Z,97420.97
2023-02-23T09:18:24.083Z,97416.81
2023-02-23T09:20:26.994Z,97412.59
2023-02-23T09:22:28.342Z,97417.78
2023-02-23T09:24:29.883Z,97414.44
2023-02-23T09:26:32.500Z,97417.88
2023-02-23T09:28:34.138Z,97417.09
2023-02-23T09:30:35.475Z,97414.53
2023-02-23T09:32:37.485Z,97415.41
2023-02-23T09:34:38.834Z,97418.88
2023-02-23T09:36:40.176Z,97416.31
2023-02-23T09:38:41.475Z,97426.47
2023-02-23T09:40:42.759Z,97423.97
2023-02-23T09:42:44.051Z,97425.69
2023-02-23T09:44:45.535Z,97422.31
2023-02-23T09:46:47.013Z,97419.69
2023-02-23T09:48:48.410Z,97425.63
2023-02-23T09:50:49.833Z,97425.59
2023-02-23T09:52:51.142Z,97425.59
2023-02-23T09:54:52.448Z,97427.22
2023-02-23T09:56:56.286Z,97426.28
2023-02-23T09:58:57.646Z,97427.84
2023-02-23T10:00:58.988Z,97421.69
2023-02-23T10:03:01.019Z,97431.81
2023-02-23T10:05:02.834Z,97425.72
2023-02-23T10:07:04.191Z,97429.84
2023-02-23T10:09:05.532Z,97427.19
2023-02-23T10:11:07.632Z,97434.78
2023-02-23T10:13:09.518Z,97431.31
2023-02-23T10:15:11.287Z,97429.56
2023-02-23T10:17:14.577Z,97428.69
2023-02-23T10:19:15.928Z,97429.47
2023-02-23T10:21:17.421Z,97433.63
2023-02-23T10:23:18.805Z,97424.25
2023-02-23T10:25:20.122Z,97424.25
2023-02-23T10:27:21.451Z,97413.28
2023-02-23T10:29:22.785Z,97424.44
2023-02-23T10:31:24.254Z,97422.81
2023-02-23T10:33:25.623Z,97417.03
2023-02-23T10:35:26.969Z,97417.84
2023-02-23T10:37:28.552Z,97410.31
2023-02-23T10:39:30.040Z,97412.88
2023-02-23T10:41:31.699Z,97422.34
2023-02-23T10:43:33.032Z,97415.63
2023-02-23T10:45:34.335Z,97420.03
2023-02-23T10:47:35.707Z,97413.34
2023-02-23T10:49:39.881Z,97415.03
2023-02-23T10:51:41.444Z,97414.28
2023-02-23T10:53:43.562Z,97416.84
2023-02-23T10:55:45.310Z,97414.28
2023-02-23T10:57:47.233Z,97416.06
2023-02-23T10:59:48.560Z,97409.28
2023-02-23T11:02:01.470Z,97412.72
2023-02-23T11:04:06.203Z,97411.88
2023-02-23T11:06:07.735Z,97407.72
2023-02-23T11:08:09.174Z,97402.53
2023-02-23T11:10:10.484Z,97403.38
2023-02-23T11:12:11.798Z,97405.94
2023-02-23T11:14:13.117Z,97402.50
2023-02-23T11:16:14.504Z,97388.00
2023-02-23T11:18:16.054Z,97398.19
2023-02-23T11:20:17.434Z,97391.38
2023-02-23T11:22:22.281Z,97393.00
2023-02-23T11:24:23.676Z,97392.03
2023-02-23T11:26:25.029Z,97380.91
2023-02-23T11:28:27.686Z,97385.06
2023-02-23T11:30:29.573Z,97379.88
2023-02-23T11:32:31.019Z,97381.63
2023-02-23T11:34:32.430Z,97372.16
2023-02-23T11:36:33.771Z,97375.44
2023-02-23T11:38:35.116Z,97370.38
2023-02-23T11:40:36.545Z,97373.00
2023-02-23T11:42:37.869Z,97367.84
2023-02-23T11:44:39.207Z,97362.78
2023-02-23T11:46:42.656Z,97367.84
2023-02-23T11:48:44.109Z,97365.22
2023-02-23T11:50:45.455Z,97363.56
2023-02-23T11:52:46.736Z,97364.44
2023-02-23T11:54:48.042Z,97359.44
2023-02-23T11:56:52.303Z,97359.44
2023-02-23T11:58:59.775Z,97356.88
2023-02-23T12:01:01.180Z,97356.16
2023-02-23T12:03:02.489Z,97356.09
2023-02-23T12:05:05.099Z,97354.38
2023-02-23T12:07:06.435Z,97356.97
2023-02-23T12:09:07.798Z,97355.34
2023-02-23T12:11:09.092Z,97354.59
2023-02-23T12:13:10.387Z,97351.25
2023-02-23T12:15:11.720Z,97351.34
2023-02-23T12:17:14.168Z,97349.66
2023-02-23T12:19:15.471Z,97350.63
2023-02-23T12:21:16.807Z,97347.28
2023-02-23T12:23:18.196Z,97336.28
2023-02-23T12:25:20.379Z,97332.06
2023-02-23T12:27:22.455Z,97327.84
2023-02-23T12:29:26.505Z,97337.22
2023-02-23T12:31:28.377Z,97334.72
2023-02-23T12:33:33.995Z,97329.59
2023-02-23T12:35:35.425Z,97323.72
2023-02-23T12:37:37.136Z,97332.22
2023-02-23T12:39:38.463Z,97333.91
2023-02-23T12:41:40.586Z,97333.06
2023-02-23T12:43:41.921Z,97325.31
2023-02-23T12:45:43.245Z,97330.41
2023-02-23T12:47:44.568Z,97324.41
2023-02-23T12:49:45.874Z,97322.75
2023-02-23T12:51:47.571Z,97323.56
2023-02-23T12:53:48.919Z,97326.84
2023-02-23T12:55:50.232Z,97319.16
2023-02-23T12:57:51.528Z,97318.22
2023-02-23T12:59:53.337Z,97319.81
2023-02-23T13:01:54.820Z,97317.19
2023-02-23T13:03:56.189Z,97312.06
2023-02-23T13:05:57.723Z,97311.13
2023-02-23T13:08:04.718Z,97299.97
2023-02-23T13:10:13.015Z,97300.66
2023-02-23T13:12:14.381Z,97298.06
2023-02-23T13:14:15.746Z,97292.00
2023-02-23T13:16:17.161Z,97287.63
2023-02-23T13:18:18.470Z,97281.59
2023-02-23T13:20:19.807Z,97289.25
2023-02-23T13:22:21.116Z,97280.66
2023-02-23T13:24:22.468Z,97283.19
2023-02-23T13:26:24.833Z,97273.00
2023-02-23T13:28:28.263Z,97268.00
2023-02-23T13:30:32.421Z,97277.56
2023-02-23T13:32:33.852Z,97285.44
2023-02-23T13:34:35.276Z,97283.81
2023-02-23T13:36:36.593Z,97276.22
2023-02-23T13:38:37.918Z,97272.81
2023-02-23T13:40:39.325Z,97282.31
2023-02-23T13:42:40.863Z,97275.56
2023-02-23T13:44:42.217Z,97286.66
2023-02-23T13:46:43.803Z,97277.34
2023-02-23T13:48:56.612Z,97280.84
2023-02-23T13:50:59.412Z,97284.25
2023-02-23T13:53:01.181Z,97258.53
2023-02-23T13:55:03.989Z,97279.31
2023-02-23T13:57:08.544Z,97282.84
2023-02-23T13:59:09.875Z,97277.81
2023-02-23T14:01:11.270Z,97282.91
2023-02-23T14:03:12.775Z,97283.84
2023-02-23T14:05:14.159Z,97287.00
2023-02-23T14:07:16.628Z,97286.41
2023-02-23T14:09:17.924Z,97285.09
2023-02-23T14:11:19.564Z,97298.47
2023-02-23T14:13:21.178Z,97294.88
2023-02-23T14:15:22.481Z,97287.56
2023-02-23T14:17:23.786Z,97279.78
2023-02-23T14:19:25.127Z,97286.56
2023-02-23T14:21:26.470Z,97288.75
2023-02-23T14:23:28.001Z,97290.53
2023-02-23T14:25:29.316Z,97285.16
2023-02-23T14:29:43.873Z,97283.22
2023-02-23T14:31:45.343Z,97275.03
2023-02-23T14:33:48.446Z,97283.25
2023-02-23T14:35:49.791Z,97280.72
2023-02-23T14:37:51.124Z,97278.00
2023-02-23T14:39:52.433Z,97270.38
2023-02-23T14:41:53.775Z,97272.75
2023-02-23T14:43:55.137Z,97131.69
2023-02-23T14:45:56.436Z,97279.13
2023-02-23T14:47:59.894Z,97280.56
2023-02-23T14:50:02.230Z,97268.59
2023-02-23T14:52:03.696Z,97276.19
2023-02-23T14:54:05.060Z,97270.97
2023-02-23T14:56:06.351Z,97270.75
2023-02-23T14:58:07.686Z,97267.25
2023-02-23T15:00:08.999Z,97278.47
2023-02-23T15:02:10.452Z,97275.25
2023-02-23T15:04:11.981Z,97270.31
2023-02-23T15:06:13.372Z,97269.50
2023-02-23T15:08:15.353Z,97123.72
2023-02-23T15:10:16.668Z,97267.88
2023-02-23T15:12:18.060Z,97277.34
2023-02-23T15:14:27.649Z,97272.22
2023-02-23T15:16:29.481Z,97273.19
2023-02-23T15:18:30.797Z,97274.94
2023-02-23T15:20:33.679Z,97283.44
2023-02-23T15:22:35.149Z,97277.63
2023-02-23T15:24:36.457Z,97277.75
2023-02-23T15:26:37.804Z,97271.03
2023-02-23T15:28:39.107Z,97276.19
2023-02-23T15:30:40.397Z,97273.78
2023-02-23T15:32:42.539Z,97267.06
2023-02-23T15:34:43.881Z,97263.66
2023-02-23T15:36:47.100Z,97261.94
2023-02-23T15:38:48.404Z,97264.53
2023-02-23T15:40:49.703Z,97258.66
2023-02-23T15:42:51.043Z,97261.22
2023-02-23T15:44:52.372Z,97259.53
2023-02-23T15:46:53.740Z,97254.41
2023-02-23T15:48:55.079Z,97257.78
2023-02-23T15:50:57.658Z,97253.50
2023-02-23T15:52:59.139Z,97253.00
2023-02-23T15:55:01.619Z,97249.00
2023-02-23T15:57:03.051Z,97248.47
2023-02-23T15:59:07.305Z,97246.03
2023-02-23T16:01:08.746Z,97245.38
2023-02-23T16:03:10.156Z,97247.25
2023-02-23T16:05:14.445Z,97243.88
2023-02-23T16:07:15.791Z,97240.56
2023-02-23T16:09:21.795Z,97244.94
2023-02-23T16:11:23.476Z,97252.66
2023-02-23T16:13:24.912Z,97249.34
2023-02-23T16:15:26.276Z,97250.22
2023-02-23T16:17:27.614Z,97254.56
2023-02-23T16:19:28.933Z,97251.09
2023-02-23T16:21:33.329Z,97259.66
2023-02-23T16:23:36.178Z,97257.38
2023-02-23T16:25:37.512Z,97255.53
2023-02-23T16:27:38.928Z,97252.31
2023-02-23T16:29:46.335Z,97260.72
2023-02-23T16:31:47.803Z,97256.25
2023-02-23T16:33:49.340Z,97267.22
2023-02-23T16:35:50.723Z,97263.75
2023-02-23T16:37:52.016Z,97266.28
2023-02-23T16:39:53.303Z,97261.16
2023-02-23T16:41:54.631Z,97262.88
2023-02-23T16:43:56.148Z,97257.69
2023-02-23T16:45:57.484Z,97267.03
2023-02-23T16:48:11.526Z,97265.38
2023-02-23T16:50:19.274Z,97261.09
2023-02-23T16:52:22.454Z,97265.38
2023-02-23T16:54:23.769Z,97262.88
2023-02-23T16:56:25.645Z,97272.25
2023-02-23T16:58:27.158Z,97274.88
2023-02-23T17:00:31.647Z,97278.38
2023-02-23T17:02:32.999Z,97275.94
2023-02-23T17:04:34.380Z,97279.44
2023-02-23T17:06:38.528Z,97279.47
2023-02-23T17:08:45.910Z,97283.78
2023-02-23T17:10:54.203Z,97274.53
2023-02-23T17:12:55.837Z,97279.69
2023-02-23T17:14:57.243Z,97278.00
2023-02-23T17:17:00.866Z,97279.81
2023-02-23T17:19:02.396Z,97282.44
2023-02-23T17:21:03.758Z,97280.81
2023-02-23T17:23:05.180Z,97281.97
2023-02-23T17:25:09.279Z,97282.28
2023-02-23T17:27:12.022Z,97279.56
2023-02-23T17:29:13.436Z,97280.59
2023-02-23T17:31:14.862Z,97285.34
2023-02-23T17:33:17.352Z,97285.91
2023-02-23T17:35:21.877Z,97288.22
2023-02-23T17:37:23.341Z,97284.59
2023-02-23T17:39:28.180Z,97283.53
2023-02-23T17:41:29.767Z,97283.44
2023-02-23T17:43:31.174Z,97281.41
2023-02-23T17:45:32.512Z,97279.66
2023-02-23T17:47:33.981Z,97278.59
2023-02-23T17:49:35.324Z,97290.31
2023-02-23T17:51:36.653Z,97286.78
2023-02-23T17:53:37.997Z,97286.63
2023-02-23T17:55:42.447Z,97277.16
2023-02-23T17:59:48.100Z,97269.28
2023-02-23T18:01:49.732Z,97267.38
2023-02-23T18:03:51.202Z,97275.03
2023-02-23T18:05:55.680Z,97274.00
2023-02-23T18:07:56.977Z,97271.31
2023-02-23T18:09:58.435Z,97277.16
2023-02-23T18:11:59.812Z,97275.47
2023-02-23T18:14:03.048Z,97271.28
2023-02-23T18:16:05.982Z,97281.66
2023-02-23T18:18:07.301Z,97273.84
2023-02-23T18:20:14.996Z,97270.78
2023-02-23T18:22:16.389Z,97271.97
2023-02-23T18:24:17.931Z,97275.09
2023-02-23T18:26:19.275Z,97262.78
2023-02-23T18:28:20.618Z,97266.38
2023-02-23T18:30:24.849Z,97261.94
2023-02-23T18:32:26.332Z,97261.22
2023-02-23T18:34:28.648Z,97264.63
2023-02-23T18:36:30.032Z,97264.41
2023-02-23T18:38:31.792Z,97261.09
2023-02-23T18:40:33.227Z,97256.38
2023-02-23T18:42:34.618Z,97252.56
2023-02-23T18:44:36.038Z,97259.69
2023-02-23T18:46:37.375Z,97253.50
2023-02-23T18:48:38.723Z,97253.63
2023-02-23T18:50:40.160Z,97257.81
2023-02-23T18:52:42.144Z,97249.13
2023-02-23T18:54:43.508Z,97256.47
2023-02-23T18:56:45.094Z,97252.31
2023-02-23T18:58:46.435Z,97253.03
2023-02-23T19:00:50.815Z,97256.66
2023-02-23T19:02:52.183Z,97254.22
2023-02-23T19:04:53.566Z,97252.25
2023-02-23T19:06:54.953Z,97253.19
2023-02-23T19:08:57.224Z,97253.19
2023-02-23T19:11:02.235Z,97254.44
2023-02-23T19:13:03.695Z,97248.66
2023-02-23T19:15:07.225Z,97249.28
2023-02-23T19:17:09.092Z,97246.94
2023-02-23T19:19:13.044Z,97249.84
2023-02-23T19:21:14.469Z,97240.00
2023-02-23T19:23:21.431Z,97236.25
2023-02-23T19:25:22.751Z,97239.97
2023-02-23T19:27:24.052Z,97237.69
2023-02-23T19:29:28.102Z,97236.84
2023-02-23T19:31:29.542Z,97238.81
2023-02-23T19:33:30.998Z,97232.31
2023-02-23T19:35:33.599Z,97232.16
2023-02-23T19:37:34.938Z,97232.44
2023-02-23T19:39:36.322Z,97241.69
2023-02-23T19:41:40.788Z,97234.75
2023-02-23T19:43:42.117Z,97242.59
2023-02-23T19:45:46.602Z,97240.06
2023-02-23T19:47:47.984Z,97239.31
2023-02-23T19:49:49.374Z,97240.06
2023-02-23T19:51:52.862Z,97239.97
2023-02-23T19:53:54.621Z,97235.78
2023-02-23T19:55:55.945Z,97225.00
2023-02-23T19:57:57.242Z,97226.16
2023-02-23T19:59:59.151Z,97224.56
2023-02-23T20:02:00.504Z,97222.06
2023-02-23T20:04:02.459Z,97216.94
2023-02-23T20:06:03.819Z,97230.13
2023-02-23T20:08:05.165Z,97228.22
2023-02-23T20:10:08.119Z,97224.78
2023-02-23T20:12:09.461Z,97225.25
2023-02-23T20:14:15.219Z,97228.66
2023-02-23T20:16:16.609Z,97217.00
2023-02-23T20:18:20.251Z,97220.44
2023-02-23T20:20:25.510Z,97225.38
2023-02-23T20:22:26.837Z,97228.88
2023-02-23T20:24:28.162Z,97227.09
2023-02-23T20:26:34.250Z,97221.38
2023-02-23T20:28:38.397Z,97217.09
2023-02-23T20:30:39.784Z,97221.53
2023-02-23T20:32:41.234Z,97224.75
2023-02-23T20:34:45.387Z,97227.72
2023-02-23T20:36:46.748Z,97224.53
2023-02-23T20:38:48.122Z,97217.03
2023-02-23T20:40:56.093Z,97218.03
2023-02-23T20:42:57.435Z,97221.44
2023-02-23T20:44:58.798Z,97215.97
2023-02-23T20:47:00.773Z,97218.97
2023-02-23T20:49:03.640Z,97208.78
2023-02-23T20:51:08.436Z,97216.94
2023-02-23T20:53:09.825Z,97208.81
2023-02-23T20:55:11.137Z,97215.31
2023-02-23T20:57:12.431Z,97206.94
2023-02-23T20:59:23.221Z,97203.53
2023-02-23T21:01:27.056Z,97191.59
2023-02-23T21:03:28.457Z,97196.63
2023-02-23T21:05:29.853Z,97192.09
2023-02-23T21:07:31.151Z,97185.09
2023-02-23T21:09:32.896Z,97183.38
2023-02-23T21:11:34.228Z,97189.47
2023-02-23T21:13:35.564Z,97188.97
2023-02-23T21:15:36.945Z,97189.69
2023-02-23T21:17:38.610Z,97176.97
2023-02-23T21:19:40.072Z,97177.19
2023-02-23T21:21:41.525Z,97175.72
2023-02-23T21:23:45.695Z,97161.94
2023-02-23T21:25:47.045Z,97172.56
2023-02-23T21:27:48.361Z,97171.88
2023-02-23T21:29:49.661Z,97165.72
2023-02-23T21:31:51.267Z,97167.25
2023-02-23T21:33:52.621Z,97160.06
2023-02-23T21:35:58.678Z,97158.97
2023-02-23T21:38:00.032Z,97156.94
2023-02-23T21:40:01.325Z,97167.69
2023-02-23T21:42:02.695Z,97159.34
2023-02-23T21:44:04.055Z,97017.84
2023-02-23T21:46:05.378Z,97153.50
2023-02-23T21:48:09.732Z,97163.03
2023-02-23T21:50:13.662Z,97150.03
2023-02-23T21:52:14.999Z,97150.91
2023-02-23T21:54:16.306Z,97148.59
2023-02-23T21:56:17.646Z,97142.34
2023-02-23T21:58:18.956Z,97148.53
2023-02-23T22:00:21.022Z,97147.44
2023-02-23T22:02:22.475Z,97143.84
2023-02-23T22:04:23.820Z,97143.56
2023-02-23T22:06:25.147Z,97141.59
2023-02-23T22:08:26.443Z,97133.75
2023-02-23T22:10:28.128Z,97132.66
2023-02-23T22:12:32.676Z,97136.72
2023-02-23T22:14:34.008Z,97137.22
2023-02-23T22:16:38.123Z,97137.91
2023-02-23T22:18:40.944Z,97142.78
2023-02-23T22:20:51.136Z,97137.47
2023-02-23T22:22:52.572Z,97134.09
2023-02-23T22:24:53.902Z,97139.22
2023-02-23T22:26:55.428Z,97134.91
2023-02-23T22:28:56.774Z,97131.53
2023-02-23T22:30:58.164Z,97126.59
2023-02-23T22:32:59.546Z,97130.75
2023-02-23T22:35:01.011Z,97129.22
2023-02-23T22:37:02.340Z,97122.50
2023-02-23T22:39:06.229Z,97131.13
2023-02-23T22:41:10.571Z,97125.25
2023-02-23T22:43:12.023Z,97115.28
2023-02-23T22:45:13.348Z,97116.09
2023-02-23T22:47:14.651Z,97108.78
2023-02-23T22:49:16.054Z,97102.38
2023-02-23T22:51:17.499Z,97107.47
2023-02-23T22:53:18.864Z,97107.59
2023-02-23T22:55:20.148Z,97101.75
2023-02-23T22:57:21.457Z,97101.13
2023-02-23T22:59:22.793Z,97097.72
2023-02-23T23:01:26.706Z,97099.44
2023-02-23T23:03:28.022Z,97098.69
2023-02-23T23:05:29.394Z,97102.94
2023-02-23T23:07:33.425Z,97104.63
2023-02-23T23:09:36.278Z,97092.84
2023-02-23T23:11:37.611Z,97092.16
2023-02-23T23:13:43.227Z,97091.19
2023-02-23T23:15:44.519Z,97089.47
2023-02-23T23:17:48.747Z,97092.84
2023-02-23T23:19:50.136Z,97092.03
2023-02-23T23:21:55.035Z,97085.38
2023-02-23T23:23:56.577Z,97086.31
2023-02-23T23:25:57.891Z,97083.75
2023-02-23T23:27:59.188Z,97087.28
2023-02-23T23:30:02.934Z,97087.34
2023-02-23T23:32:06.804Z,97090.72
2023-02-23T23:34:09.382Z,97082.28
2023-02-23T23:36:11.760Z,97077.25
2023-02-23T23:38:14.420Z,97074.63
2023-02-23T23:40:15.833Z,97076.19
2023-02-23T23:42:17.152Z,97077.81
2023-02-23T23:44:18.521Z,97078.78
2023-02-23T23:46:22.857Z,97078.78
2023-02-23T23:48:25.359Z,97079.53
2023-02-23T23:50:27.451Z,97070.09
2023-02-23T23:52:30.088Z,97075.16
2023-02-23T23:54:31.383Z,97075.97
2023-02-23T23:56:34.787Z,97071.72
2023-02-23T23:58:36.695Z,97070.75
